Time;durP1;ratioP1;P1;durP2;ratioP2;P2;SDS_P1;SDS_P2;PMS_P1;PMS_P2;Temp;Humidity;BMP_temperature;BMP_pressure;BME280_temperature;BME280_humidity;BME280_pressure;Samples;Min_cycle;Max_cycle;Signal;HPM_P1;HPM_P2
2022/10/20 00:01:35;;;;;;;1.75;0.80;;;8.80;93.60;;;;;;4784000;29;20051;-89
2022/10/20 00:04:02;;;;;;;2.88;0.82;;;8.80;93.60;;;;;;4768766;29;20060;-90
2022/10/20 00:06:32;;;;;;;2.17;1.00;;;8.70;93.60;;;;;;4770943;29;20043;-89
2022/10/20 00:09:01;;;;;;;1.90;0.93;;;8.80;93.70;;;;;;4787379;29;20048;-89
2022/10/20 00:11:30;;;;;;;2.05;1.05;;;8.70;93.70;;;;;;4772449;29;20060;-89
2022/10/20 00:13:58;;;;;;;2.15;1.25;;;8.70;93.70;;;;;;4772479;29;20055;-89
2022/10/20 00:16:27;;;;;;;1.80;0.80;;;8.70;93.70;;;;;;4773130;29;20062;-89
2022/10/20 00:18:55;;;;;;;1.80;0.95;;;8.70;93.70;;;;;;4771506;29;20127;-90
2022/10/20 00:21:25;;;;;;;2.03;0.90;;;8.70;93.70;;;;;;4757176;30;20446;-88
2022/10/20 00:23:57;;;;;;;2.13;0.93;;;8.70;93.70;;;;;;4757100;30;20051;-90
2022/10/20 00:26:26;;;;;;;3.50;1.05;;;8.70;93.70;;;;;;4782134;29;20052;-90
2022/10/20 00:28:54;;;;;;;4.13;1.30;;;8.70;93.80;;;;;;4771988;29;20060;-90
2022/10/20 00:31:25;;;;;;;2.30;0.90;;;8.60;93.70;;;;;;4772199;29;20467;-88
2022/10/20 00:33:52;;;;;;;3.92;1.10;;;8.70;93.80;;;;;;4771869;30;20489;-88
2022/10/20 00:36:21;;;;;;;2.92;1.23;;;8.60;94.00;;;;;;4771972;29;20051;-88
2022/10/20 00:38:50;;;;;;;5.32;1.45;;;8.60;93.80;;;;;;4772259;29;20214;-86
2022/10/20 00:41:19;;;;;;;2.45;1.15;;;8.60;93.80;;;;;;4787049;29;20413;-88
2022/10/20 00:44:00;;;;;;;2.08;1.00;;;8.60;93.80;;;;;;4771996;29;20086;-87
2022/10/20 00:46:31;;;;;;;2.15;1.13;;;8.60;93.80;;;;;;4771327;29;20158;-87
2022/10/20 00:49:08;;;;;;;2.25;1.08;;;8.60;93.80;;;;;;4786799;30;20087;-87
2022/10/20 00:51:36;;;;;;;2.55;1.27;;;8.60;93.80;;;;;;4771730;29;20060;-88
2022/10/20 00:54:14;;;;;;;2.80;1.48;;;8.60;93.80;;;;;;4786440;29;20094;-88
2022/10/20 00:56:44;;;;;;;3.33;1.40;;;8.60;93.80;;;;;;4763340;30;20060;-88
2022/10/20 00:59:15;;;;;;;3.67;1.58;;;8.60;93.80;;;;;;4786432;29;20056;-88
2022/10/20 01:01:43;;;;;;;2.13;1.10;;;8.60;93.80;;;;;;4786489;29;20082;-87
2022/10/20 01:04:10;;;;;;;2.83;1.17;;;8.50;93.80;;;;;;4771079;29;20052;-90
2022/10/20 01:06:38;;;;;;;1.95;0.95;;;8.50;93.80;;;;;;4771777;30;20056;-90
2022/10/20 01:09:05;;;;;;;1.40;0.80;;;8.60;93.90;;;;;;4771465;30;20079;-90
2022/10/20 01:12:00;;;;;;;3.50;1.20;;;8.50;93.90;;;;;;4786066;30;20062;-90
2022/10/20 01:14:57;;;;;;;2.22;0.93;;;8.50;93.80;;;;;;4771274;29;20055;-89
2022/10/20 01:18:03;;;;;;;2.55;1.10;;;8.50;93.90;;;;;;4770857;29;20055;-90
2022/10/20 01:21:04;;;;;;;2.17;1.00;;;8.50;93.90;;;;;;4759120;29;20052;-90
2022/10/20 01:23:49;;;;;;;1.83;0.93;;;8.50;93.90;;;;;;4771407;30;20112;-89
2022/10/20 01:26:50;;;;;;;3.03;0.93;;;8.40;93.90;;;;;;4785745;29;20051;-89
2022/10/20 01:29:39;;;;;;;4.15;0.95;;;8.50;93.90;;;;;;4771237;30;20086;-89
2022/10/20 01:32:27;;;;;;;1.77;0.88;;;8.40;93.90;;;;;;4769179;30;20091;-90
2022/10/20 01:35:19;;;;;;;3.25;1.30;;;8.40;94.00;;;;;;4770802;30;20138;-89
2022/10/20 01:37:53;;;;;;;2.70;1.30;;;8.40;94.00;;;;;;4771252;30;20052;-90
2022/10/20 01:40:37;;;;;;;3.67;1.27;;;8.40;94.00;;;;;;4760183;30;20052;-90
2022/10/20 01:43:09;;;;;;;;;;;8.40;94.00;;;;;;4771194;30;20055;-89
2022/10/20 01:45:39;;;;;;;2.33;1.00;;;8.30;94.00;;;;;;4785911;29;19985;-90
2022/10/20 01:48:09;;;;;;;1.25;0.63;;;8.30;94.10;;;;;;4785613;29;20056;-90
2022/10/20 01:50:38;;;;;;;3.42;1.10;;;8.30;94.10;;;;;;4770507;30;20079;-90
2022/10/20 01:53:06;;;;;;;2.00;0.90;;;8.30;94.10;;;;;;4770317;29;20051;-90
2022/10/20 01:55:34;;;;;;;1.85;1.10;;;8.30;94.10;;;;;;4784754;29;20082;-90
2022/10/20 01:58:33;;;;;;;2.60;1.17;;;8.30;94.10;;;;;;4785622;29;20051;-89
2022/10/20 02:01:16;;;;;;;2.20;0.70;;;8.30;94.10;;;;;;4783659;30;20131;-90
2022/10/20 02:03:56;;;;;;;3.67;1.25;;;8.30;94.10;;;;;;4756079;30;20055;-90
2022/10/20 02:07:02;;;;;;;2.72;1.17;;;8.30;94.10;;;;;;4770223;29;20118;-90
2022/10/20 02:09:40;;;;;;;3.08;1.15;;;8.30;94.10;;;;;;4761221;30;20051;-84
2022/10/20 02:12:14;;;;;;;3.10;1.10;;;8.30;94.10;;;;;;4769208;30;20058;-84
2022/10/20 02:14:42;;;;;;;2.45;1.20;;;8.30;94.10;;;;;;4769314;30;20565;-84
2022/10/20 02:17:13;;;;;;;2.40;1.02;;;8.30;94.10;;;;;;4742322;30;20470;-84
2022/10/20 02:19:44;;;;;;;2.75;0.93;;;8.30;94.10;;;;;;4784019;30;20056;-84
2022/10/20 02:22:14;;;;;;;3.13;1.10;;;8.30;94.10;;;;;;4784394;29;20048;-85
2022/10/20 02:24:42;;;;;;;2.85;1.30;;;8.30;94.10;;;;;;4784061;29;20056;-84
2022/10/20 02:27:14;;;;;;;1.73;0.80;;;8.30;94.20;;;;;;4769156;29;20480;-84
2022/10/20 02:29:47;;;;;;;1.55;0.90;;;8.30;94.20;;;;;;4768436;30;20112;-84
2022/10/20 02:32:14;;;;;;;;;;;8.30;94.20;;;;;;4784280;29;20143;-82
2022/10/20 02:34:41;;;;;;;1.65;0.73;;;8.30;94.20;;;;;;4783016;29;19926;-82
2022/10/20 02:37:09;;;;;;;2.05;1.05;;;8.20;94.20;;;;;;4783155;29;20047;-82
2022/10/20 02:39:36;;;;;;;2.65;1.25;;;8.20;94.20;;;;;;4783594;29;20047;-82
2022/10/20 02:42:03;;;;;;;2.63;1.27;;;8.20;94.20;;;;;;4783768;29;20474;-81
2022/10/20 02:44:31;;;;;;;3.47;1.60;;;8.20;94.20;;;;;;4754124;30;20047;-82
2022/10/20 02:46:58;;;;;;;2.33;1.20;;;8.20;94.20;;;;;;4740507;30;20146;-82
2022/10/20 02:49:26;;;;;;;3.55;1.50;;;8.20;94.20;;;;;;4783404;29;20464;-82
2022/10/20 02:51:53;;;;;;;2.28;1.05;;;8.20;94.20;;;;;;4768325;29;20048;-82
2022/10/20 02:54:20;;;;;;;2.50;1.35;;;8.20;94.20;;;;;;4783322;29;20054;-82
2022/10/20 02:56:47;;;;;;;2.28;1.10;;;8.20;94.20;;;;;;4768115;29;20537;-83
2022/10/20 02:59:18;;;;;;;2.47;1.10;;;8.20;94.20;;;;;;4783290;29;20425;-83
2022/10/20 03:01:46;;;;;;;2.60;1.50;;;8.20;94.20;;;;;;4777079;29;20056;-83
2022/10/20 03:04:13;;;;;;;1.95;0.98;;;8.20;94.30;;;;;;4771430;29;20071;-83
2022/10/20 03:06:40;;;;;;;2.47;1.02;;;8.20;94.30;;;;;;4783286;29;20574;-83
2022/10/20 03:09:07;;;;;;;1.90;0.60;;;8.20;94.30;;;;;;4753841;30;20086;-83
2022/10/20 03:11:34;;;;;;;2.67;0.98;;;8.20;94.30;;;;;;4783627;29;20052;-83
2022/10/20 03:14:01;;;;;;;2.75;1.00;;;8.20;94.30;;;;;;4783546;29;20079;-83
2022/10/20 03:16:28;;;;;;;2.45;1.20;;;8.20;94.30;;;;;;4783664;29;20048;-83
2022/10/20 03:18:55;;;;;;;2.17;1.00;;;8.20;94.30;;;;;;4768311;29;20443;-83
2022/10/20 03:21:29;;;;;;;2.42;1.10;;;8.20;94.30;;;;;;4768220;29;20044;-82
2022/10/20 03:23:56;;;;;;;1.90;0.90;;;8.20;94.30;;;;;;4781408;29;20048;-83
2022/10/20 03:26:23;;;;;;;2.60;1.08;;;8.20;94.40;;;;;;4756197;29;20051;-89
2022/10/20 03:28:50;;;;;;;1.65;0.82;;;8.20;94.30;;;;;;4772388;29;20060;-89
2022/10/20 03:31:17;;;;;;;1.73;0.80;;;8.20;94.30;;;;;;4783914;29;20147;-88
2022/10/20 03:33:43;;;;;;;2.03;1.02;;;8.20;94.30;;;;;;4754686;29;20128;-88
2022/10/20 03:36:10;;;;;;;3.03;1.00;;;8.20;94.30;;;;;;4783831;29;20072;-88
2022/10/20 03:38:40;;;;;;;2.15;1.02;;;8.20;94.30;;;;;;4769687;29;20094;-89
2022/10/20 03:41:08;;;;;;;3.17;1.13;;;8.20;94.30;;;;;;4772469;30;20138;-89
2022/10/20 03:43:35;;;;;;;2.13;1.00;;;8.20;94.30;;;;;;4787562;29;20048;-89
2022/10/20 03:46:04;;;;;;;2.33;1.10;;;8.20;94.30;;;;;;4787828;29;20062;-89
2022/10/20 03:48:31;;;;;;;2.80;0.80;;;8.20;94.60;;;;;;4772853;29;20047;-88
2022/10/20 03:51:00;;;;;;;2.85;1.10;;;8.20;94.30;;;;;;4758126;30;20083;-89
2022/10/20 03:53:27;;;;;;;4.03;1.17;;;8.20;94.30;;;;;;4772697;29;20150;-88
2022/10/20 03:55:54;;;;;;;2.53;1.00;;;8.20;94.30;;;;;;4772404;29;20062;-89
2022/10/20 03:58:21;;;;;;;3.55;1.30;;;8.20;94.30;;;;;;4772576;30;20048;-89
2022/10/20 04:00:49;;;;;;;2.40;1.27;;;8.20;94.60;;;;;;4787367;29;20056;-89
2022/10/20 04:03:16;;;;;;;2.38;1.20;;;8.20;94.30;;;;;;4772936;30;20044;-89
2022/10/20 04:05:43;;;;;;;1.83;1.00;;;8.20;94.30;;;;;;4787269;29;20047;-89
2022/10/20 04:08:09;;;;;;;2.17;1.08;;;8.20;94.30;;;;;;4772259;29;20055;-83
2022/10/20 04:10:37;;;;;;;2.78;1.15;;;8.20;94.30;;;;;;4777184;29;20059;-83
2022/10/20 04:13:03;;;;;;;2.90;1.30;;;8.20;94.30;;;;;;4771354;29;20052;-83
2022/10/20 04:15:31;;;;;;;2.42;0.93;;;8.20;94.30;;;;;;4786201;29;20060;-83
2022/10/20 04:17:58;;;;;;;2.58;1.30;;;8.20;94.30;;;;;;4770925;29;20114;-83
2022/10/20 04:20:25;;;;;;;2.83;1.40;;;8.20;94.30;;;;;;4771132;30;20409;-83
2022/10/20 04:22:54;;;;;;;2.67;1.30;;;8.20;94.30;;;;;;4786059;29;20052;-83
2022/10/20 04:25:24;;;;;;;2.53;1.10;;;8.20;94.40;;;;;;4771428;29;20058;-83
2022/10/20 04:27:51;;;;;;;2.13;1.00;;;8.20;94.30;;;;;;4771415;29;20469;-83
2022/10/20 04:30:18;;;;;;;2.63;1.15;;;8.20;94.40;;;;;;4786161;29;20071;-83
2022/10/20 04:32:45;;;;;;;1.92;1.00;;;8.20;94.30;;;;;;4771021;29;20143;-83
2022/10/20 04:35:12;;;;;;;2.22;1.27;;;8.20;94.30;;;;;;4785258;29;20139;-83
2022/10/20 04:37:39;;;;;;;2.25;1.33;;;8.20;94.30;;;;;;4785929;29;20059;-83
2022/10/20 04:40:06;;;;;;;6.35;2.55;;;8.20;94.30;;;;;;4785469;29;20422;-83
2022/10/20 04:42:33;;;;;;;3.03;1.50;;;8.20;94.30;;;;;;4770750;30;20048;-83
2022/10/20 04:45:00;;;;;;;2.05;1.02;;;8.20;94.30;;;;;;4770849;29;20074;-83
2022/10/20 04:47:31;;;;;;;2.70;1.20;;;8.30;94.30;;;;;;4785663;29;20052;-83
2022/10/20 04:49:59;;;;;;;2.50;1.60;;;8.30;94.30;;;;;;4771173;29;20075;-83
2022/10/20 04:52:27;;;;;;;3.42;1.17;;;8.30;94.30;;;;;;4770001;29;20056;-83
2022/10/20 04:54:54;;;;;;;3.80;1.27;;;8.30;94.30;;;;;;4772704;30;20052;-83
2022/10/20 04:57:22;;;;;;;3.15;1.48;;;8.30;94.30;;;;;;4770372;30;20060;-85
2022/10/20 04:59:49;;;;;;;6.07;1.80;;;8.30;94.30;;;;;;4770630;29;20055;-85
2022/10/20 05:02:16;;;;;;;3.35;1.30;;;8.30;94.30;;;;;;4785783;29;20570;-83
2022/10/20 05:04:45;;;;;;;1.95;1.00;;;8.40;94.30;;;;;;4785436;29;20048;-84
2022/10/20 05:07:12;;;;;;;3.22;1.55;;;8.40;94.30;;;;;;4770475;29;20383;-84
2022/10/20 05:09:39;;;;;;;2.60;1.23;;;8.40;94.20;;;;;;4759949;30;20075;-84
2022/10/20 05:12:06;;;;;;;2.10;1.27;;;8.40;94.20;;;;;;4779838;30;20076;-83
2022/10/20 05:14:33;;;;;;;2.83;1.23;;;8.40;94.20;;;;;;4783206;30;20040;-83
2022/10/20 05:17:00;;;;;;;2.90;1.23;;;8.50;94.30;;;;;;4784401;29;20055;-83
2022/10/20 05:19:31;;;;;;;3.38;1.35;;;8.50;94.20;;;;;;4784158;29;20734;-84
2022/10/20 05:21:58;;;;;;;1.67;0.70;;;8.50;94.20;;;;;;4773983;29;20134;-84
2022/10/20 05:24:24;;;;;;;2.15;1.17;;;8.50;94.20;;;;;;4774225;29;20074;-83
2022/10/20 05:26:58;;;;;;;2.90;1.30;;;8.60;94.20;;;;;;4770088;30;20140;-84
2022/10/20 05:29:25;;;;;;;2.17;1.23;;;8.60;94.20;;;;;;4741330;30;20455;-84
2022/10/20 05:31:52;;;;;;;3.67;1.20;;;8.60;94.20;;;;;;4770044;29;20124;-84
2022/10/20 05:34:19;;;;;;;2.42;1.00;;;8.60;94.20;;;;;;4769941;29;20063;-84
2022/10/20 05:36:46;;;;;;;2.05;1.05;;;8.60;94.20;;;;;;4770257;29;20447;-84
2022/10/20 05:39:13;;;;;;;3.05;1.48;;;8.60;94.20;;;;;;4769795;30;20046;-83
2022/10/20 05:41:40;;;;;;;2.28;1.13;;;8.60;94.20;;;;;;4784685;29;20063;-84
2022/10/20 05:44:09;;;;;;;2.47;1.05;;;8.70;94.20;;;;;;4784088;29;20060;-83
2022/10/20 05:46:40;;;;;;;2.03;0.95;;;8.70;94.20;;;;;;4755127;30;20052;-83
2022/10/20 05:49:13;;;;;;;2.17;1.23;;;8.60;94.20;;;;;;4769329;30;20051;-83
2022/10/20 05:51:40;;;;;;;3.88;1.55;;;8.60;94.20;;;;;;4769934;30;20090;-84
2022/10/20 05:54:10;;;;;;;4.28;1.42;;;8.60;94.20;;;;;;4769499;30;20050;-83
2022/10/20 05:56:37;;;;;;;3.17;1.30;;;8.60;94.20;;;;;;4769480;30;20095;-84
2022/10/20 05:59:05;;;;;;;2.72;1.38;;;8.70;94.30;;;;;;4782023;29;20051;-83
2022/10/20 06:02:06;;;;;;;3.53;1.42;;;8.70;94.30;;;;;;4784517;29;20132;-83
2022/10/20 06:04:27;;;;;;;2.40;1.13;;;8.70;94.30;;;;;;4769093;29;20460;-83
2022/10/20 06:06:55;;;;;;;2.65;1.27;;;8.70;94.30;;;;;;4753841;30;20071;-84
2022/10/20 06:09:23;;;;;;;3.47;1.02;;;8.70;94.30;;;;;;4784022;29;20086;-84
2022/10/20 06:11:51;;;;;;;4.47;1.80;;;8.70;94.30;;;;;;4783990;29;20056;-84
2022/10/20 06:14:21;;;;;;;2.33;1.33;;;8.70;94.30;;;;;;4753149;30;20151;-84
2022/10/20 06:16:52;;;;;;;2.92;1.10;;;8.70;94.30;;;;;;4784027;29;20131;-84
2022/10/20 06:19:21;;;;;;;2.58;1.33;;;8.80;94.30;;;;;;4771020;30;20274;-83
2022/10/20 06:21:49;;;;;;;4.30;1.60;;;8.80;94.20;;;;;;4769553;30;20055;-83
2022/10/20 06:24:17;;;;;;;3.22;1.67;;;8.80;94.20;;;;;;4764657;30;20043;-83
2022/10/20 06:26:44;;;;;;;2.92;1.60;;;8.80;94.20;;;;;;4768773;30;20413;-83
2022/10/20 06:29:13;;;;;;;3.33;1.40;;;8.80;94.20;;;;;;4783563;29;20052;-84
2022/10/20 06:31:47;;;;;;;2.47;0.90;;;8.80;94.50;;;;;;4768835;30;20047;-83
2022/10/20 06:34:19;;;;;;;3.78;1.27;;;8.80;94.20;;;;;;4783897;29;20057;-84
2022/10/20 06:36:47;;;;;;;2.58;1.40;;;8.90;94.30;;;;;;4768845;29;20063;-84
2022/10/20 06:39:19;;;;;;;2.63;1.00;;;8.90;94.20;;;;;;4783508;29;20108;-83
2022/10/20 06:41:49;;;;;;;2.65;1.05;;;8.90;94.20;;;;;;4755949;29;20079;-84
2022/10/20 06:44:21;;;;;;;2.53;1.30;;;8.90;94.20;;;;;;4782738;29;20046;-84
2022/10/20 06:46:51;;;;;;;2.38;0.90;;;9.00;94.20;;;;;;4768094;29;20086;-84
2022/10/20 06:49:19;;;;;;;2.90;1.13;;;9.00;94.20;;;;;;4765808;29;20075;-84
2022/10/20 06:51:46;;;;;;;2.22;1.00;;;9.00;94.20;;;;;;4753012;30;20079;-85
2022/10/20 06:54:13;;;;;;;2.67;1.05;;;9.10;94.20;;;;;;4768681;30;20086;-83
2022/10/20 06:56:40;;;;;;;2.42;0.90;;;9.10;94.40;;;;;;4768509;30;20471;-84
2022/10/20 06:59:07;;;;;;;3.60;1.45;;;9.20;94.10;;;;;;4783365;29;20048;-83
2022/10/20 07:01:36;;;;;;;4.00;1.33;;;9.20;94.10;;;;;;4768578;29;20105;-83
2022/10/20 07:04:12;;;;;;;2.70;1.38;;;9.20;94.10;;;;;;4783428;29;20453;-84
2022/10/20 07:06:44;;;;;;;3.17;1.17;;;9.30;94.00;;;;;;4768434;29;20075;-87
2022/10/20 07:09:17;;;;;;;2.88;1.30;;;9.30;94.00;;;;;;4769535;30;20445;-88
2022/10/20 07:11:49;;;;;;;3.88;1.58;;;9.40;94.00;;;;;;4768682;29;20051;-87
2022/10/20 07:14:16;;;;;;;2.83;1.30;;;9.40;93.90;;;;;;4783618;29;20502;-87
2022/10/20 07:17:22;;;;;;;3.45;1.58;;;9.40;93.90;;;;;;4776202;29;20143;-90
2022/10/20 07:19:50;;;;;;;2.65;1.30;;;9.50;93.90;;;;;;4767723;30;20056;-84
2022/10/20 07:22:17;;;;;;;3.63;1.70;;;9.50;93.80;;;;;;4783444;29;20130;-83
2022/10/20 07:24:44;;;;;;;2.90;1.20;;;9.60;93.80;;;;;;4768831;30;20093;-84
2022/10/20 07:27:11;;;;;;;3.78;2.35;;;9.60;93.80;;;;;;4783270;29;20496;-84
2022/10/20 07:29:38;;;;;;;3.25;1.60;;;9.70;93.80;;;;;;4768364;29;20137;-83
2022/10/20 07:32:07;;;;;;;3.17;1.60;;;9.70;93.70;;;;;;4767755;29;20047;-83
2022/10/20 07:34:34;;;;;;;3.53;1.50;;;9.70;93.70;;;;;;4768074;30;20199;-81
2022/10/20 07:37:01;;;;;;;3.00;1.25;;;9.80;93.70;;;;;;4767795;29;20055;-81
2022/10/20 07:39:31;;;;;;;2.65;1.25;;;9.80;93.60;;;;;;4783147;30;20074;-80
2022/10/20 07:41:58;;;;;;;3.30;1.50;;;9.90;93.70;;;;;;4768115;30;20050;-83
2022/10/20 07:44:25;;;;;;;2.65;1.30;;;9.90;93.60;;;;;;4783075;30;20043;-80
2022/10/20 07:46:52;;;;;;;3.08;1.35;;;10.00;93.60;;;;;;4769453;29;20058;-82
2022/10/20 07:49:19;;;;;;;2.70;1.35;;;10.00;93.60;;;;;;4768195;30;20060;-82
2022/10/20 07:52:06;;;;;;;3.80;1.45;;;10.00;93.60;;;;;;4782428;29;20075;-87
2022/10/20 07:54:33;;;;;;;2.90;1.60;;;10.10;93.50;;;;;;4784306;29;20502;-88
2022/10/20 07:57:00;;;;;;;3.55;1.60;;;10.10;93.50;;;;;;4774765;30;20448;-86
2022/10/20 07:59:28;;;;;;;3.65;1.65;;;10.20;93.50;;;;;;4768545;30;20122;-83
2022/10/20 08:01:55;;;;;;;3.00;1.60;;;10.20;93.40;;;;;;4767578;29;20101;-84
2022/10/20 08:04:26;;;;;;;4.07;1.33;;;10.30;93.40;;;;;;4767885;29;20052;-83
2022/10/20 08:06:53;;;;;;;3.15;1.75;;;10.30;93.40;;;;;;4783140;29;20051;-83
2022/10/20 08:09:20;;;;;;;3.63;1.60;;;10.30;93.70;;;;;;4767383;30;20484;-81
2022/10/20 08:11:47;;;;;;;2.97;1.35;;;10.30;93.40;;;;;;4782591;29;20055;-82
2022/10/20 08:14:25;;;;;;;2.90;1.48;;;10.40;93.40;;;;;;4757466;30;20113;-83
2022/10/20 08:16:53;;;;;;;5.20;1.55;;;10.40;93.40;;;;;;4762068;30;20122;-83
2022/10/20 08:19:23;;;;;;;2.47;1.20;;;10.40;93.40;;;;;;4758386;30;20119;-82
2022/10/20 08:21:59;;;;;;;2.28;1.15;;;10.50;93.40;;;;;;4782699;29;20524;-82
2022/10/20 08:24:26;;;;;;;3.30;1.55;;;10.50;93.30;;;;;;4782756;29;20060;-82
2022/10/20 08:26:53;;;;;;;4.03;1.90;;;10.60;93.30;;;;;;4780228;29;20455;-82
2022/10/20 08:29:20;;;;;;;4.22;2.00;;;10.60;93.30;;;;;;4767649;29;20072;-82
2022/10/20 08:31:47;;;;;;;5.05;2.20;;;10.70;93.20;;;;;;4778372;30;20078;-84
2022/10/20 08:34:14;;;;;;;4.20;2.05;;;10.70;93.20;;;;;;4786621;29;20072;-87
2022/10/20 08:36:41;;;;;;;3.38;1.85;;;10.80;93.20;;;;;;4771456;29;20048;-83
2022/10/20 08:39:08;;;;;;;3.38;2.15;;;10.80;93.10;;;;;;4771747;29;20054;-90
2022/10/20 08:41:41;;;;;;;4.70;2.03;;;10.90;93.10;;;;;;4772429;29;20401;-89
2022/10/20 08:44:34;;;;;;;3.60;1.77;;;11.00;93.00;;;;;;4786866;29;20060;-89
2022/10/20 08:47:03;;;;;;;2.78;1.40;;;11.10;93.00;;;;;;4770954;29;20139;-85
2022/10/20 08:49:33;;;;;;;4.72;1.92;;;11.20;92.90;;;;;;4771178;29;20051;-86
2022/10/20 08:52:03;;;;;;;3.95;2.00;;;11.30;92.90;;;;;;4777650;29;20055;-86
2022/10/20 08:54:33;;;;;;;3.35;1.73;;;11.30;92.80;;;;;;4770997;30;20083;-85
2022/10/20 08:57:00;;;;;;;4.97;1.88;;;11.40;92.80;;;;;;4785824;29;20070;-86
2022/10/20 08:59:32;;;;;;;4.18;1.70;;;11.50;92.80;;;;;;4770836;29;20070;-85
2022/10/20 09:02:01;;;;;;;3.45;1.88;;;11.50;92.70;;;;;;4771113;29;20079;-86
2022/10/20 09:04:33;;;;;;;3.70;1.92;;;11.60;92.70;;;;;;4767529;29;20044;-86
2022/10/20 09:07:10;;;;;;;5.40;1.98;;;11.70;92.70;;;;;;4785741;29;20056;-86
2022/10/20 09:09:38;;;;;;;4.32;2.25;;;11.80;92.60;;;;;;4771071;29;20112;-86
2022/10/20 09:12:09;;;;;;;4.07;1.98;;;11.90;92.60;;;;;;4770358;29;20063;-85
2022/10/20 09:14:36;;;;;;;5.78;3.47;;;12.00;92.60;;;;;;4785907;29;20112;-86
2022/10/20 09:17:05;;;;;;;5.22;2.20;;;12.10;92.50;;;;;;4770623;29;20071;-86
2022/10/20 09:19:37;;;;;;;4.63;2.60;;;12.20;92.40;;;;;;4771019;30;20055;-85
2022/10/20 09:22:05;;;;;;;5.85;2.20;;;12.20;92.40;;;;;;4770993;29;20465;-87
2022/10/20 09:24:35;;;;;;;5.68;2.40;;;12.30;92.40;;;;;;4770253;29;20129;-86
2022/10/20 09:27:28;;;;;;;6.45;2.58;;;12.40;92.30;;;;;;4765833;29;20082;-86
2022/10/20 09:29:55;;;;;;;4.70;2.80;;;12.50;92.30;;;;;;4755885;30;20055;-86
2022/10/20 09:32:31;;;;;;;4.20;2.40;;;12.50;92.30;;;;;;4785325;29;20056;-86
2022/10/20 09:35:30;;;;;;;4.35;2.53;;;12.50;92.20;;;;;;4772817;29;20095;-86
2022/10/20 09:38:09;;;;;;;4.82;2.58;;;12.60;92.30;;;;;;4784795;29;20066;-86
2022/10/20 09:40:56;;;;;;;4.40;2.70;;;12.60;92.20;;;;;;4769988;29;20055;-86
2022/10/20 09:43:25;;;;;;;4.05;2.53;;;12.70;92.30;;;;;;4770055;30;20062;-86
2022/10/20 09:45:58;;;;;;;5.13;2.67;;;12.70;92.30;;;;;;4779089;29;20525;-86
2022/10/20 09:48:27;;;;;;;6.82;2.67;;;12.70;92.30;;;;;;4785064;29;20063;-86
2022/10/20 09:50:59;;;;;;;4.63;2.20;;;12.80;92.30;;;;;;4784793;29;20059;-86
2022/10/20 09:53:44;;;;;;;4.70;2.90;;;12.80;92.30;;;;;;4770169;30;20060;-86
2022/10/20 09:56:11;;;;;;;3.60;2.03;;;12.90;92.30;;;;;;4766883;30;20132;-86
2022/10/20 09:58:38;;;;;;;4.60;2.35;;;12.90;92.30;;;;;;4767304;29;20576;-85
2022/10/20 10:01:11;;;;;;;5.93;3.35;;;13.00;92.30;;;;;;4741435;30;20052;-88
2022/10/20 10:03:46;;;;;;;5.72;3.13;;;13.00;92.20;;;;;;4785636;29;20519;-92
2022/10/20 10:06:40;;;;;;;5.95;3.10;;;13.00;92.20;;;;;;4770677;29;20509;-94
2022/10/20 10:09:31;;;;;;;6.35;2.90;;;13.00;92.20;;;;;;4770889;30;20059;-94
2022/10/20 10:12:11;;;;;;;6.30;2.75;;;13.00;92.20;;;;;;4785771;29;20063;-90
2022/10/20 10:14:54;;;;;;;5.82;2.72;;;13.00;92.30;;;;;;4784810;29;20063;-92
2022/10/20 10:17:44;;;;;;;7.10;3.10;;;13.00;92.30;;;;;;4785410;29;20056;-92
2022/10/20 10:20:15;;;;;;;4.47;2.47;;;13.00;92.40;;;;;;4766739;29;20058;-85
2022/10/20 10:22:42;;;;;;;4.93;2.17;;;13.00;92.40;;;;;;4784342;29;20476;-87
2022/10/20 10:25:22;;;;;;;5.28;2.55;;;13.00;92.40;;;;;;4785372;29;20064;-87
2022/10/20 10:28:05;;;;;;;4.97;2.90;;;13.10;92.40;;;;;;4769551;30;20075;-86
2022/10/20 10:30:36;;;;;;;4.43;2.67;;;13.20;92.40;;;;;;4769366;30;20477;-85
2022/10/20 10:33:26;;;;;;;5.47;2.67;;;13.10;92.40;;;;;;4769158;29;20485;-86
2022/10/20 10:35:54;;;;;;;6.43;2.75;;;13.10;92.40;;;;;;4764489;29;20159;-84
2022/10/20 10:38:24;;;;;;;5.85;3.70;;;13.10;92.50;;;;;;4768850;29;20146;-84
2022/10/20 10:41:22;;;;;;;5.15;2.70;;;13.10;92.50;;;;;;4768831;30;20055;-84
2022/10/20 10:44:15;;;;;;;4.60;2.60;;;13.20;92.50;;;;;;4757744;29;20082;-84
2022/10/20 10:46:48;;;;;;;;;;;13.20;92.50;;;;;;4769558;30;20083;-84
2022/10/20 10:49:36;;;;;;;4.78;1.98;;;13.20;92.60;;;;;;4783528;29;19932;-85
2022/10/20 10:52:40;;;;;;;3.90;2.28;;;13.20;92.50;;;;;;4783962;29;20055;-87
2022/10/20 10:55:19;;;;;;;4.80;2.55;;;13.30;92.50;;;;;;4767424;30;20064;-87
2022/10/20 10:58:44;;;;;;;4.15;2.13;;;13.30;92.50;;;;;;4758079;30;20059;-85
2022/10/20 11:01:28;;;;;;;4.82;2.75;;;13.40;92.50;;;;;;4768332;29;20497;-84
2022/10/20 11:04:01;;;;;;;4.95;3.00;;;13.40;92.50;;;;;;4778438;29;20108;-85
2022/10/20 11:07:04;;;;;;;4.88;2.53;;;13.50;92.50;;;;;;4783507;30;20497;-84
2022/10/20 11:09:59;;;;;;;5.53;3.25;;;13.50;92.50;;;;;;4768346;30;20047;-87
2022/10/20 11:12:26;;;;;;;4.22;2.25;;;13.50;92.60;;;;;;4771042;29;20052;-85
2022/10/20 11:15:07;;;;;;;5.40;2.70;;;13.50;92.60;;;;;;4783302;29;20426;-84
2022/10/20 11:17:37;;;;;;;5.85;2.72;;;13.60;92.90;;;;;;4769473;30;20068;-85
2022/10/20 11:20:39;;;;;;;6.25;2.97;;;13.60;92.60;;;;;;4774347;29;20135;-85
2022/10/20 11:23:41;;;;;;;4.65;2.60;;;13.60;92.60;;;;;;4754125;30;20055;-86
2022/10/20 11:26:34;;;;;;;4.18;2.47;;;13.70;92.70;;;;;;4768659;30;20054;-85
2022/10/20 11:29:04;;;;;;;4.70;2.45;;;13.70;92.70;;;;;;4783416;29;20087;-83
2022/10/20 11:31:39;;;;;;;8.38;3.28;;;13.70;92.70;;;;;;4783260;29;20158;-84
2022/10/20 11:34:12;;;;;;;5.35;2.63;;;13.70;92.80;;;;;;4768332;29;20051;-86
2022/10/20 11:36:41;;;;;;;;;;;13.70;92.80;;;;;;4783073;30;20036;-84
2022/10/20 11:39:32;;;;;;;5.53;2.90;;;13.60;92.80;;;;;;4768140;30;19926;-85
2022/10/20 11:42:30;;;;;;;5.05;2.65;;;13.60;92.80;;;;;;4767513;29;20819;-85
2022/10/20 11:45:00;;;;;;;4.43;2.50;;;13.70;92.90;;;;;;4783057;29;20138;-87
2022/10/20 11:47:40;;;;;;;5.43;2.97;;;13.60;92.90;;;;;;4767956;29;20086;-84
2022/10/20 11:50:11;;;;;;;5.80;3.17;;;13.60;93.00;;;;;;4767522;30;20079;-84
2022/10/20 11:53:14;;;;;;;5.80;3.15;;;13.60;93.00;;;;;;4783146;29;20048;-86
2022/10/20 11:56:04;;;;;;;5.88;3.33;;;13.60;93.00;;;;;;4765082;29;20621;-86
2022/10/20 11:58:54;;;;;;;7.07;4.20;;;13.60;93.10;;;;;;4768461;30;20581;-83
2022/10/20 12:01:33;;;;;;;5.63;3.22;;;13.60;93.20;;;;;;4758578;30;20109;-82
2022/10/20 12:04:31;;;;;;;7.72;3.55;;;13.60;93.20;;;;;;4786245;29;20051;-84
2022/10/20 12:07:26;;;;;;;6.03;3.42;;;13.50;93.30;;;;;;4768770;30;20413;-84
2022/10/20 12:10:10;;;;;;;5.80;3.40;;;13.50;93.30;;;;;;4777291;29;20135;-84
2022/10/20 12:13:25;;;;;;;6.82;2.90;;;13.50;93.40;;;;;;4786209;29;20067;-83
2022/10/20 12:15:55;;;;;;;5.50;3.40;;;13.50;93.50;;;;;;4780680;29;20056;-90
2022/10/20 12:18:28;;;;;;;5.97;3.40;;;13.50;93.50;;;;;;4756416;30;20052;-89
2022/10/20 12:21:00;;;;;;;7.50;3.65;;;13.50;93.50;;;;;;4756262;30;20075;-83
2022/10/20 12:23:42;;;;;;;6.83;3.60;;;13.60;93.50;;;;;;4771043;29;20490;-84
2022/10/20 12:26:28;;;;;;;6.30;3.38;;;13.60;93.50;;;;;;4786091;29;20524;-84
2022/10/20 12:28:57;;;;;;;4.97;2.80;;;13.60;93.50;;;;;;4753442;30;20048;-84
2022/10/20 12:31:24;;;;;;;6.53;4.07;;;13.60;93.60;;;;;;4768067;30;20052;-83
2022/10/20 12:33:52;;;;;;;7.60;4.28;;;13.60;93.60;;;;;;4786081;29;20052;-84
2022/10/20 12:36:19;;;;;;;6.97;3.92;;;13.60;93.60;;;;;;4772294;29;20092;-84
2022/10/20 12:39:06;;;;;;;7.65;3.72;;;13.50;93.70;;;;;;4755861;30;20048;-84
2022/10/20 12:41:37;;;;;;;7.95;4.90;;;13.60;93.80;;;;;;4771768;30;20460;-89
2022/10/20 12:44:18;;;;;;;8.32;4.70;;;13.50;93.80;;;;;;4772024;29;20052;-89
2022/10/20 12:46:56;;;;;;;6.53;4.15;;;13.60;93.90;;;;;;4787296;30;20516;-89
2022/10/20 12:49:33;;;;;;;6.00;4.00;;;13.60;93.90;;;;;;4771679;29;20059;-89
2022/10/20 12:52:01;;;;;;;7.82;3.72;;;13.70;93.90;;;;;;4769645;30;20058;-89
2022/10/20 12:54:39;;;;;;;7.22;3.92;;;13.70;93.80;;;;;;4771191;29;20429;-85
2022/10/20 12:57:44;;;;;;;7.35;4.05;;;13.80;93.80;;;;;;4770683;29;20070;-84
2022/10/20 13:00:20;;;;;;;7.10;3.97;;;13.90;93.80;;;;;;4771063;29;20054;-87
2022/10/20 13:02:54;;;;;;;6.95;3.67;;;14.00;93.70;;;;;;4756983;29;20048;-85
2022/10/20 13:05:27;;;;;;;8.27;4.50;;;14.10;93.70;;;;;;4785211;30;20105;-85
2022/10/20 13:08:14;;;;;;;6.68;4.28;;;14.20;93.60;;;;;;4785617;29;20055;-87
2022/10/20 13:10:44;;;;;;;8.23;4.90;;;14.20;93.90;;;;;;4770557;29;20170;-89
2022/10/20 13:13:37;;;;;;;6.95;4.32;;;14.20;93.70;;;;;;4785406;29;20052;-87
2022/10/20 13:16:14;;;;;;;7.57;4.35;;;14.20;93.70;;;;;;4767773;30;20056;-87
2022/10/20 13:18:45;;;;;;;5.20;3.42;;;14.10;93.80;;;;;;4785389;29;20048;-85
2022/10/20 13:21:32;;;;;;;6.35;3.83;;;14.10;93.90;;;;;;4770238;29;20068;-86
2022/10/20 13:24:12;;;;;;;5.68;3.70;;;14.00;93.90;;;;;;4771389;30;20138;-84
2022/10/20 13:26:42;;;;;;;6.78;4.63;;;14.00;94.00;;;;;;4785048;29;20454;-85